createdAt,value
2023-08-06T00:00:27.731Z,11.30
2023-08-06T00:02:54.681Z,6.95
2023-08-06T00:05:24.367Z,6.43
2023-08-06T00:07:51.672Z,10.13
2023-08-06T00:10:18.754Z,9.52
2023-08-06T00:12:45.334Z,9.82
2023-08-06T00:15:12.592Z,8.27
2023-08-06T00:17:39.627Z,6.90
2023-08-06T00:20:07.330Z,7.60
2023-08-06T00:22:36.427Z,7.53
2023-08-06T00:25:04.394Z,9.50
2023-08-06T00:27:30.886Z,8.85
2023-08-06T00:29:57.508Z,7.30
2023-08-06T00:32:24.244Z,8.73
2023-08-06T00:34:50.926Z,9.23
2023-08-06T00:37:20.492Z,7.28
2023-08-06T00:39:47.063Z,7.72
2023-08-06T00:42:13.719Z,6.65
2023-08-06T00:44:40.523Z,6.40
2023-08-06T00:47:08.676Z,8.48
2023-08-06T00:49:37.066Z,7.05
2023-08-06T00:52:06.464Z,9.10
2023-08-06T00:54:33.735Z,8.25
2023-08-06T00:57:02.217Z,9.63
2023-08-06T00:59:31.163Z,9.43
2023-08-06T01:01:57.772Z,7.18
2023-08-06T01:04:25.120Z,8.48
2023-08-06T01:07:04.458Z,9.68
2023-08-06T01:09:49.605Z,7.23
2023-08-06T01:12:25.125Z,8.90
2023-08-06T01:14:51.588Z,9.18
2023-08-06T01:17:18.241Z,7.75
2023-08-06T01:19:47.831Z,12.45
2023-08-06T01:22:14.270Z,7.53
2023-08-06T01:24:45.227Z,7.50
2023-08-06T01:27:27.544Z,8.77
2023-08-06T01:30:37.708Z,8.57
2023-08-06T01:33:06.361Z,8.77
2023-08-06T01:35:34.716Z,7.80
2023-08-06T01:38:02.476Z,9.02
2023-08-06T01:40:30.561Z,9.15
2023-08-06T01:42:57.057Z,10.98
2023-08-06T01:45:23.602Z,9.18
2023-08-06T01:47:50.182Z,8.40
2023-08-06T01:50:16.816Z,9.15
2023-08-06T01:52:43.525Z,11.32
2023-08-06T01:55:09.953Z,8.90
2023-08-06T01:57:36.478Z,10.38
2023-08-06T02:00:04.698Z,11.57
2023-08-06T02:02:31.538Z,8.45
2023-08-06T02:04:59.445Z,12.30
2023-08-06T02:07:25.986Z,10.80
2023-08-06T02:09:52.567Z,9.60
2023-08-06T02:12:19.240Z,9.53
2023-08-06T02:14:45.750Z,13.27
2023-08-06T02:17:12.360Z,9.95
2023-08-06T02:19:38.903Z,14.65
2023-08-06T02:22:05.888Z,10.57
2023-08-06T02:24:33.050Z,11.60
2023-08-06T02:26:59.854Z,10.73
2023-08-06T02:29:26.468Z,13.15
2023-08-06T02:31:53.531Z,11.55
2023-08-06T02:34:20.501Z,11.85
2023-08-06T02:36:47.098Z,13.27
2023-08-06T02:39:13.569Z,10.23
2023-08-06T02:41:40.061Z,12.27
2023-08-06T02:44:06.610Z,11.68
2023-08-06T02:46:33.161Z,10.40
2023-08-06T02:48:59.652Z,9.30
2023-08-06T02:51:26.324Z,9.63
2023-08-06T02:53:52.807Z,10.15
2023-08-06T02:56:19.374Z,9.48
2023-08-06T02:58:45.830Z,8.43
2023-08-06T03:01:12.447Z,9.17
2023-08-06T03:03:38.885Z,7.05
2023-08-06T03:06:05.441Z,8.73
2023-08-06T03:08:31.973Z,8.25
2023-08-06T03:10:58.681Z,8.43
2023-08-06T03:13:25.265Z,8.17
2023-08-06T03:16:01.189Z,7.65
2023-08-06T03:18:28.162Z,8.68
2023-08-06T03:20:55.528Z,7.78
2023-08-06T03:23:22.042Z,10.45
2023-08-06T03:25:48.655Z,7.83
2023-08-06T03:28:15.629Z,8.00
2023-08-06T03:30:42.120Z,7.03
2023-08-06T03:33:08.778Z,8.45
2023-08-06T03:35:35.448Z,7.07
2023-08-06T03:38:02.288Z,8.03
2023-08-06T03:40:28.881Z,7.25
2023-08-06T03:42:55.319Z,7.53
2023-08-06T03:45:21.907Z,8.20
2023-08-06T03:47:48.671Z,7.55
2023-08-06T03:50:15.363Z,7.70
2023-08-06T03:52:42.062Z,10.43
2023-08-06T03:55:08.675Z,10.85
2023-08-06T03:57:35.122Z,9.23
2023-08-06T04:00:01.649Z,9.50
2023-08-06T04:02:28.269Z,8.70
2023-08-06T04:04:55.035Z,9.27
2023-08-06T04:07:21.691Z,10.90
2023-08-06T04:09:56.184Z,10.27
2023-08-06T04:12:23.210Z,8.48
2023-08-06T04:14:50.965Z,11.40
2023-08-06T04:17:17.601Z,10.25
2023-08-06T04:19:44.274Z,11.20
2023-08-06T04:22:10.865Z,10.38
2023-08-06T04:24:37.392Z,11.05
2023-08-06T04:27:04.197Z,11.90
2023-08-06T04:29:30.888Z,11.43
2023-08-06T04:31:57.494Z,11.98
2023-08-06T04:34:23.957Z,12.15
2023-08-06T04:36:50.566Z,11.52
2023-08-06T04:39:17.079Z,12.53
2023-08-06T04:41:43.568Z,12.77
2023-08-06T04:44:10.339Z,12.70
2023-08-06T04:46:36.938Z,12.88
2023-08-06T04:49:03.457Z,13.05
2023-08-06T04:51:30.159Z,12.07
2023-08-06T04:53:58.308Z,14.55
2023-08-06T04:56:25.194Z,15.60
2023-08-06T04:58:51.776Z,14.43
2023-08-06T05:01:18.261Z,16.88
2023-08-06T05:03:44.901Z,14.17
2023-08-06T05:06:11.791Z,14.63
2023-08-06T05:08:38.488Z,14.10
2023-08-06T05:11:04.973Z,14.80
2023-08-06T05:13:31.481Z,15.57
2023-08-06T05:15:58.044Z,16.50
2023-08-06T05:18:24.563Z,14.57
2023-08-06T05:20:51.192Z,13.23
2023-08-06T05:23:17.973Z,14.20
2023-08-06T05:25:44.476Z,18.65
2023-08-06T05:28:10.913Z,15.07
2023-08-06T05:30:41.092Z,17.50
2023-08-06T05:33:07.583Z,19.52
2023-08-06T05:35:34.561Z,15.55
2023-08-06T05:38:01.212Z,15.10
2023-08-06T05:40:27.606Z,18.17
2023-08-06T05:42:57.034Z,16.45
2023-08-06T05:45:23.604Z,16.40
2023-08-06T05:47:50.600Z,16.92
2023-08-06T05:50:17.271Z,18.73
2023-08-06T05:52:44.658Z,15.13
2023-08-06T05:55:11.186Z,14.60
2023-08-06T05:57:37.834Z,16.50
2023-08-06T06:00:07.192Z,17.15
2023-08-06T06:02:33.830Z,17.83
2023-08-06T06:05:00.476Z,17.20
2023-08-06T06:07:26.975Z,15.50
2023-08-06T06:09:53.434Z,16.58
2023-08-06T06:12:20.023Z,16.70
2023-08-06T06:14:46.736Z,16.50
2023-08-06T06:17:13.213Z,18.23
2023-08-06T06:19:39.712Z,15.80
2023-08-06T06:22:06.272Z,15.70
2023-08-06T06:24:32.877Z,16.95
2023-08-06T06:26:59.760Z,16.42
2023-08-06T06:29:26.243Z,15.97
2023-08-06T06:31:53.066Z,17.75
2023-08-06T06:34:19.842Z,16.58
2023-08-06T06:36:46.372Z,16.77
2023-08-06T06:39:13.243Z,15.40
2023-08-06T06:41:39.744Z,18.67
2023-08-06T06:44:06.953Z,16.10
2023-08-06T06:46:33.426Z,15.38
2023-08-06T06:48:59.980Z,13.57
2023-08-06T06:51:26.662Z,13.93
2023-08-06T06:53:53.126Z,14.53
2023-08-06T06:56:19.568Z,14.27
2023-08-06T06:58:46.109Z,15.45
2023-08-06T07:01:13.251Z,14.23
2023-08-06T07:03:39.992Z,15.05
2023-08-06T07:06:06.938Z,16.10
2023-08-06T07:08:33.841Z,13.48
2023-08-06T07:11:02.812Z,13.25
2023-08-06T07:13:29.470Z,13.10
2023-08-06T07:15:56.630Z,15.95
2023-08-06T07:18:23.544Z,18.27
2023-08-06T07:20:53.891Z,15.98
2023-08-06T07:23:24.814Z,16.92
2023-08-06T07:25:51.952Z,14.38
2023-08-06T07:28:18.779Z,15.13
2023-08-06T07:30:46.681Z,15.90
2023-08-06T07:33:13.389Z,15.80
2023-08-06T07:35:40.229Z,14.65
2023-08-06T07:38:06.869Z,16.45
2023-08-06T07:40:33.465Z,15.98
2023-08-06T07:42:59.925Z,15.03
2023-08-06T07:45:28.100Z,13.18
2023-08-06T07:47:54.973Z,14.55
2023-08-06T07:50:21.770Z,14.13
2023-08-06T07:52:48.472Z,15.30
2023-08-06T07:55:15.222Z,15.23
2023-08-06T07:57:41.726Z,13.15
2023-08-06T08:00:08.785Z,14.40
2023-08-06T08:02:35.317Z,12.52
2023-08-06T08:05:01.998Z,12.60
2023-08-06T08:07:31.497Z,10.50
2023-08-06T08:09:58.242Z,17.00
2023-08-06T08:12:24.811Z,16.02
2023-08-06T08:14:51.372Z,13.80
2023-08-06T08:17:17.950Z,10.43
2023-08-06T08:19:44.824Z,11.33
2023-08-06T08:22:13.482Z,6.78
2023-08-06T08:24:40.060Z,5.20
2023-08-06T08:27:06.944Z,6.75
2023-08-06T08:29:33.651Z,5.57
2023-08-06T08:32:00.507Z,4.60
2023-08-06T08:34:27.119Z,4.45
2023-08-06T08:36:53.632Z,6.72
2023-08-06T08:39:20.274Z,3.45
2023-08-06T08:41:46.771Z,2.72
2023-08-06T08:44:16.138Z,3.93
2023-08-06T08:46:44.105Z,2.75
2023-08-06T08:49:12.122Z,2.33
2023-08-06T08:51:39.065Z,2.38
2023-08-06T08:54:05.660Z,2.50
2023-08-06T08:56:32.904Z,2.50
2023-08-06T08:59:00.250Z,2.75
2023-08-06T09:01:29.595Z,2.08
2023-08-06T09:03:59.500Z,1.48
2023-08-06T09:06:30.668Z,2.35
2023-08-06T09:09:27.665Z,1.80
2023-08-06T09:12:00.395Z,1.80
2023-08-06T09:14:27.886Z,3.53
2023-08-06T09:16:55.413Z,4.95
2023-08-06T09:19:21.921Z,3.60
2023-08-06T09:21:53.048Z,3.23
2023-08-06T09:24:19.946Z,2.47
2023-08-06T09:26:46.699Z,3.25
2023-08-06T09:29:13.277Z,4.07
2023-08-06T09:31:44.664Z,3.53
2023-08-06T09:34:19.576Z,2.70
2023-08-06T09:37:04.540Z,3.17
2023-08-06T09:39:31.882Z,3.13
2023-08-06T09:42:00.412Z,3.78
2023-08-06T09:44:28.628Z,3.58
2023-08-06T09:46:57.021Z,3.73
2023-08-06T09:49:28.365Z,4.28
2023-08-06T09:51:57.345Z,4.88
2023-08-06T09:54:27.798Z,4.50
2023-08-06T09:56:55.751Z,4.95
2023-08-06T09:59:23.673Z,6.73
2023-08-06T10:01:50.447Z,3.95
2023-08-06T10:04:23.620Z,5.65
2023-08-06T10:06:51.664Z,5.95
2023-08-06T10:09:19.526Z,5.63
2023-08-06T10:11:51.705Z,5.70
2023-08-06T10:14:31.563Z,8.40
2023-08-06T10:16:59.610Z,7.90
2023-08-06T10:19:27.088Z,6.13
2023-08-06T10:22:16.465Z,7.03
2023-08-06T10:25:06.734Z,7.40
2023-08-06T10:27:41.754Z,8.77
2023-08-06T10:30:29.542Z,6.68
2023-08-06T10:33:02.797Z,9.32
2023-08-06T10:35:37.338Z,6.85
2023-08-06T10:38:12.679Z,6.33
2023-08-06T10:41:02.507Z,7.25
2023-08-06T10:43:33.283Z,5.65
2023-08-06T10:46:02.040Z,9.10
2023-08-06T10:48:37.409Z,8.35
2023-08-06T10:51:05.773Z,5.80
2023-08-06T10:53:34.368Z,7.03
2023-08-06T10:56:03.499Z,6.07
2023-08-06T10:58:34.697Z,5.88
2023-08-06T11:01:01.820Z,6.93
2023-08-06T11:03:29.507Z,6.60
2023-08-06T11:05:56.386Z,6.32
2023-08-06T11:08:30.539Z,5.30
2023-08-06T11:11:09.142Z,5.53
2023-08-06T11:13:35.722Z,4.45
2023-08-06T11:16:02.632Z,5.70
2023-08-06T11:18:29.689Z,4.50
2023-08-06T11:20:56.303Z,4.55
2023-08-06T11:23:22.875Z,3.95
2023-08-06T11:25:49.507Z,4.97
2023-08-06T11:28:16.232Z,6.07
2023-08-06T11:30:42.786Z,3.28
2023-08-06T11:33:10.818Z,5.60
2023-08-06T11:35:38.567Z,5.93
2023-08-06T11:38:05.247Z,4.43
2023-08-06T11:40:33.568Z,3.53
2023-08-06T11:43:00.376Z,2.25
2023-08-06T11:45:27.064Z,5.40
2023-08-06T11:47:54.681Z,4.85
2023-08-06T11:50:27.990Z,3.75
2023-08-06T11:52:57.987Z,3.53
2023-08-06T11:55:26.081Z,4.75
2023-08-06T11:57:53.079Z,5.50
2023-08-06T12:00:20.936Z,4.60
2023-08-06T12:02:48.080Z,4.05
2023-08-06T12:05:16.373Z,4.60
2023-08-06T12:07:45.594Z,4.18
2023-08-06T12:10:13.961Z,3.40
2023-08-06T12:12:40.498Z,2.20
2023-08-06T12:15:08.717Z,4.45
2023-08-06T12:17:36.273Z,4.67
2023-08-06T12:20:05.593Z,5.13
2023-08-06T12:22:39.563Z,4.75
2023-08-06T12:25:09.462Z,3.50
2023-08-06T12:27:36.721Z,4.88
2023-08-06T12:30:04.775Z,1.67
2023-08-06T12:32:31.749Z,2.72
2023-08-06T12:34:58.553Z,4.35
2023-08-06T12:37:28.196Z,1.90
2023-08-06T12:39:54.743Z,2.45
2023-08-06T12:42:21.424Z,4.17
2023-08-06T12:44:49.596Z,4.72
2023-08-06T12:47:17.380Z,4.80
2023-08-06T12:49:44.149Z,3.33
2023-08-06T12:52:10.848Z,4.18
2023-08-06T12:54:39.925Z,1.97
2023-08-06T12:57:06.988Z,2.38
2023-08-06T12:59:37.977Z,3.67
2023-08-06T13:02:05.480Z,3.25
2023-08-06T13:04:32.861Z,3.75
2023-08-06T13:06:59.535Z,3.70
2023-08-06T13:09:27.193Z,3.40
2023-08-06T13:11:54.340Z,4.53
2023-08-06T13:14:21.168Z,4.13
2023-08-06T13:16:48.195Z,3.38
2023-08-06T13:19:14.860Z,6.10
2023-08-06T13:21:41.367Z,3.10
2023-08-06T13:24:08.459Z,5.60
2023-08-06T13:26:35.736Z,2.90
2023-08-06T13:29:03.029Z,3.00
2023-08-06T13:31:30.161Z,3.33
2023-08-06T13:33:59.063Z,5.40
2023-08-06T13:36:27.315Z,3.38
2023-08-06T13:38:54.171Z,3.72
2023-08-06T13:41:20.825Z,3.28
2023-08-06T13:43:47.642Z,2.63
2023-08-06T13:46:17.645Z,5.03
2023-08-06T13:48:45.257Z,3.85
2023-08-06T13:51:13.086Z,4.35
2023-08-06T13:53:40.548Z,5.53
2023-08-06T13:56:08.304Z,4.20
2023-08-06T13:58:34.959Z,4.30
2023-08-06T14:01:01.935Z,3.22
2023-08-06T14:03:28.764Z,4.63
2023-08-06T14:05:57.499Z,3.92
2023-08-06T14:08:27.228Z,3.23
2023-08-06T14:10:54.230Z,4.18
2023-08-06T14:13:22.670Z,5.10
2023-08-06T14:15:49.351Z,5.32
2023-08-06T14:18:17.233Z,4.35
2023-08-06T14:20:44.365Z,5.00
2023-08-06T14:23:11.292Z,2.88
2023-08-06T14:25:39.273Z,4.05
2023-08-06T14:28:07.433Z,4.65
2023-08-06T14:30:35.346Z,4.53
2023-08-06T14:33:16.582Z,5.93
2023-08-06T14:35:49.442Z,4.60
2023-08-06T14:38:15.948Z,2.42
2023-08-06T14:40:44.271Z,5.63
2023-08-06T14:43:12.309Z,8.63
2023-08-06T14:45:41.336Z,4.50
2023-08-06T14:48:08.530Z,4.80
2023-08-06T14:50:35.656Z,3.08
2023-08-06T14:53:05.290Z,3.45
2023-08-06T14:55:33.705Z,5.22
2023-08-06T14:58:02.757Z,3.00
2023-08-06T15:00:29.770Z,3.10
2023-08-06T15:02:56.481Z,2.70
2023-08-06T15:05:23.120Z,3.42
2023-08-06T15:07:49.814Z,2.67
2023-08-06T15:12:46.386Z,3.25
2023-08-06T15:15:13.130Z,4.05
2023-08-06T15:17:39.782Z,4.35
2023-08-06T15:20:07.142Z,2.55
2023-08-06T15:22:33.890Z,2.93
2023-08-06T15:25:04.949Z,2.95
2023-08-06T15:27:31.714Z,5.47
2023-08-06T15:29:58.411Z,1.80
2023-08-06T15:32:25.458Z,5.35
2023-08-06T15:34:52.592Z,4.50
2023-08-06T15:37:20.033Z,3.50
2023-08-06T15:39:47.028Z,3.80
2023-08-06T15:42:14.461Z,6.57
2023-08-06T15:44:41.204Z,5.53
2023-08-06T15:47:07.987Z,3.00
2023-08-06T15:49:34.561Z,4.15
2023-08-06T15:52:01.112Z,4.80
2023-08-06T15:54:27.733Z,4.35
2023-08-06T15:56:54.461Z,2.83
2023-08-06T15:59:25.912Z,4.13
2023-08-06T16:01:52.939Z,4.13
2023-08-06T16:04:20.245Z,4.18
2023-08-06T16:06:47.335Z,4.35
2023-08-06T16:09:14.222Z,2.35
2023-08-06T16:11:40.962Z,6.77
2023-08-06T16:14:07.490Z,7.32
2023-08-06T16:16:34.218Z,2.92
2023-08-06T16:19:02.740Z,9.05
2023-08-06T16:21:29.562Z,5.32
2023-08-06T16:23:56.236Z,6.67
2023-08-06T16:26:22.894Z,3.25
2023-08-06T16:28:49.423Z,4.00
2023-08-06T16:31:15.914Z,3.42
2023-08-06T16:33:43.866Z,3.92
2023-08-06T16:36:10.741Z,3.20
2023-08-06T16:38:37.382Z,5.40
2023-08-06T16:41:05.280Z,4.72
2023-08-06T16:43:32.009Z,3.88
2023-08-06T16:45:58.691Z,4.43
2023-08-06T16:48:28.418Z,3.87
2023-08-06T16:50:55.888Z,5.78
2023-08-06T16:53:23.518Z,4.93
2023-08-06T16:55:51.379Z,4.30
2023-08-06T16:58:18.470Z,7.53
2023-08-06T17:00:46.721Z,4.93
2023-08-06T17:03:13.495Z,4.43
2023-08-06T17:05:40.054Z,7.13
2023-08-06T17:08:06.696Z,5.90
2023-08-06T17:10:37.132Z,3.22
2023-08-06T17:13:14.338Z,3.20
2023-08-06T17:15:47.244Z,3.17
2023-08-06T17:18:17.144Z,4.22
2023-08-06T17:20:44.356Z,2.22
2023-08-06T17:23:10.977Z,3.83
2023-08-06T17:25:37.443Z,3.47
2023-08-06T17:28:04.489Z,4.35
2023-08-06T17:30:32.347Z,3.88
2023-08-06T17:32:59.225Z,6.15
2023-08-06T17:35:25.871Z,6.68
2023-08-06T17:37:54.318Z,4.37
2023-08-06T17:40:20.869Z,4.88
2023-08-06T17:42:47.264Z,6.00
2023-08-06T17:45:13.780Z,2.92
2023-08-06T17:50:07.327Z,4.57
2023-08-06T17:52:33.985Z,6.85
2023-08-06T17:55:00.489Z,4.35
2023-08-06T17:57:26.943Z,3.85
2023-08-06T17:59:53.541Z,5.50
2023-08-06T18:02:20.107Z,3.53
2023-08-06T18:04:46.701Z,4.90
2023-08-06T18:07:13.148Z,5.43
2023-08-06T18:09:39.836Z,6.35
2023-08-06T18:12:09.671Z,7.88
2023-08-06T18:14:37.042Z,3.00
2023-08-06T18:17:04.174Z,7.38
2023-08-06T18:19:31.921Z,8.45
2023-08-06T18:21:58.930Z,5.78
2023-08-06T18:24:25.509Z,5.43
2023-08-06T18:26:52.468Z,3.70
2023-08-06T18:29:19.450Z,5.57
2023-08-06T18:31:46.068Z,6.07
2023-08-06T18:34:12.516Z,7.45
2023-08-06T18:36:38.978Z,4.65
2023-08-06T18:39:05.432Z,5.33
2023-08-06T18:41:32.221Z,4.75
2023-08-06T18:43:58.632Z,4.53
2023-08-06T18:46:25.385Z,2.42
2023-08-06T18:48:52.047Z,5.38
2023-08-06T18:51:20.855Z,4.20
2023-08-06T18:53:47.277Z,4.82
2023-08-06T18:56:13.791Z,5.38
2023-08-06T18:58:40.315Z,3.70
2023-08-06T19:01:06.882Z,3.00
2023-08-06T19:03:33.528Z,2.73
2023-08-06T19:06:02.949Z,4.57
2023-08-06T19:08:29.473Z,7.07
2023-08-06T19:10:56.012Z,2.72
2023-08-06T19:13:22.619Z,4.15
2023-08-06T19:15:50.107Z,3.43
2023-08-06T19:18:16.781Z,4.55
2023-08-06T19:20:44.572Z,5.50
2023-08-06T19:23:16.669Z,4.28
2023-08-06T19:25:44.281Z,2.83
2023-08-06T19:28:17.225Z,3.00
2023-08-06T19:30:44.806Z,4.43
2023-08-06T19:33:15.175Z,3.00
2023-08-06T19:35:53.046Z,4.68
2023-08-06T19:38:21.767Z,6.95
2023-08-06T19:40:48.327Z,3.23
2023-08-06T19:43:15.263Z,5.72
2023-08-06T19:45:48.187Z,6.20
2023-08-06T19:48:14.704Z,1.67
2023-08-06T19:50:41.253Z,5.78
2023-08-06T19:53:08.603Z,2.83
2023-08-06T19:55:39.243Z,5.38
2023-08-06T19:58:05.731Z,4.30
2023-08-06T20:00:32.258Z,6.07
2023-08-06T20:02:58.825Z,3.97
2023-08-06T20:05:25.490Z,1.67
2023-08-06T20:07:51.974Z,3.72
2023-08-06T20:10:18.543Z,6.28
2023-08-06T20:12:45.041Z,2.55
2023-08-06T20:15:11.679Z,2.63
2023-08-06T20:17:38.190Z,3.37
2023-08-06T20:20:08.978Z,3.05
2023-08-06T20:22:35.900Z,3.80
2023-08-06T20:25:02.543Z,4.88
2023-08-06T20:27:29.063Z,2.70
2023-08-06T20:29:55.475Z,1.77
2023-08-06T20:32:22.037Z,2.70
2023-08-06T20:34:49.652Z,6.55
2023-08-06T20:37:16.324Z,5.50
2023-08-06T20:39:43.110Z,4.03
2023-08-06T20:42:09.578Z,2.33
2023-08-06T20:44:38.142Z,3.28
2023-08-06T20:47:05.204Z,4.38
2023-08-06T20:49:31.737Z,4.93
2023-08-06T20:51:58.396Z,4.00
2023-08-06T20:54:24.890Z,2.63
2023-08-06T20:56:51.442Z,2.28
2023-08-06T20:59:18.018Z,2.22
2023-08-06T21:01:44.445Z,3.75
2023-08-06T21:04:11.879Z,5.07
2023-08-06T21:06:38.524Z,4.93
2023-08-06T21:09:07.239Z,6.22
2023-08-06T21:11:34.605Z,3.00
2023-08-06T21:14:02.224Z,3.00
2023-08-06T21:16:29.248Z,2.40
2023-08-06T21:18:55.894Z,2.50
2023-08-06T21:21:22.337Z,3.72
2023-08-06T21:23:49.010Z,1.77
2023-08-06T21:26:16.617Z,3.78
2023-08-06T21:28:43.029Z,7.18
2023-08-06T21:31:11.440Z,5.10
2023-08-06T21:33:39.178Z,2.47
2023-08-06T21:36:08.182Z,3.95
2023-08-06T21:38:36.121Z,4.65
2023-08-06T21:41:08.461Z,3.47
2023-08-06T21:43:36.985Z,5.00
2023-08-06T21:46:04.922Z,2.55
2023-08-06T21:48:32.645Z,7.07
2023-08-06T21:51:07.914Z,4.47
2023-08-06T21:53:36.135Z,12.38
2023-08-06T21:56:09.826Z,5.03
2023-08-06T21:58:44.412Z,8.77
2023-08-06T22:01:12.940Z,11.40
2023-08-06T22:03:41.784Z,4.38
2023-08-06T22:06:09.144Z,4.82
2023-08-06T22:08:36.178Z,9.23
2023-08-06T22:11:03.922Z,5.90
2023-08-06T22:13:30.750Z,7.90
2023-08-06T22:15:58.115Z,7.57
2023-08-06T22:18:25.323Z,8.00
2023-08-06T22:20:55.413Z,6.97
2023-08-06T22:23:21.872Z,7.47
2023-08-06T22:25:48.496Z,6.30
2023-08-06T22:28:14.924Z,6.10
2023-08-06T22:30:41.907Z,6.00
2023-08-06T22:33:08.446Z,9.23
2023-08-06T22:35:34.963Z,6.38
2023-08-06T22:38:01.538Z,9.20
2023-08-06T22:40:28.154Z,9.80
2023-08-06T22:42:54.610Z,8.18
2023-08-06T22:45:21.096Z,10.13
2023-08-06T22:47:47.764Z,7.20
2023-08-06T22:50:14.361Z,9.50
2023-08-06T22:52:40.975Z,7.47
2023-08-06T22:57:37.509Z,9.13
2023-08-06T23:00:05.592Z,6.25
2023-08-06T23:02:32.367Z,7.53
2023-08-06T23:04:59.020Z,6.28
2023-08-06T23:07:25.493Z,10.57
2023-08-06T23:09:52.077Z,10.07
2023-08-06T23:12:18.600Z,9.85
2023-08-06T23:14:45.174Z,6.15
2023-08-06T23:17:11.709Z,10.07
2023-08-06T23:19:38.164Z,6.25
2023-08-06T23:22:04.854Z,6.97
2023-08-06T23:24:31.445Z,7.57
2023-08-06T23:26:58.640Z,11.27
2023-08-06T23:29:25.345Z,8.27
2023-08-06T23:31:51.985Z,5.90
2023-08-06T23:34:18.459Z,7.50
2023-08-06T23:36:45.013Z,7.13
2023-08-06T23:39:12.668Z,6.07
2023-08-06T23:41:40.394Z,6.30
2023-08-06T23:44:07.024Z,6.38
2023-08-06T23:46:34.357Z,4.87
2023-08-06T23:49:01.102Z,4.30
2023-08-06T23:51:27.732Z,4.65
2023-08-06T23:53:54.297Z,2.30
2023-08-06T23:56:20.771Z,7.03
2023-08-06T23:58:47.506Z,4.53
